Latest Weather Observations for Wadeye (Port Keats)

IDD60801

Issued at 8:31 am CST Sunday 19 November 2017 (issued every 30 minutes, with the page automatically refreshed every 10 minutes)

About weather observations | Map of weather stations | Latest weather observations for NT | Other Formats
Station Details ID: 014948 Name: PORT KEATS AIRPORT Lat: -14.25 Lon: 129.53 Height: 28.0 m
Data from the previous 72 hours. | See also: Recent months at Wadeye (Port Keats)
Date/Time
CST
Temp
°C
App
Temp
°C
Dew
Point
°C
Rel
Hum
%
Delta-T
°C
Wind Press
QNH
hPa
Press
MSL
hPa
Rain since
9am
mm
Dir  Spd
km/h
Gust
km/h
Spd
kts
Gust
kts
19/08:30am 27.6 32.3 24.0 81 2.5 SE 6 7 3 4 1009.7 1009.5 0.0
19/08:00am 26.9 31.4 24.0 84 2.0 SE 7 9 4 5 1009.1 1008.9 0.0
19/07:30am 25.8 30.1 23.3 86 1.7 SE 6 7 3 4 1008.7 1008.5 0.0
19/07:00am 24.8 29.9 22.7 88 1.4 CALM 0 0 0 0 1008.5 1008.3 0.0
19/06:30am 25.5 30.9 23.2 87 1.6 CALM 0 0 0 0 1008.5 1008.3 0.0
19/06:00am 24.9 29.8 22.4 86 1.7 CALM 0 0 0 0 1008.3 1008.1 0.0
19/05:30am 25.3 30.2 22.4 84 2.0 CALM 0 0 0 0 1008.1 1007.9 0.0
19/05:00am 25.9 29.5 22.4 81 2.4 SE 7 9 4 5 1007.9 1007.7 0.0
19/04:30am 25.7 29.3 22.0 80 2.5 ENE 6 7 3 4 1007.6 1007.4 0.0
19/04:00am 25.8 29.1 21.9 79 2.6 E 7 11 4 6 1007.6 1007.4 0.0
19/03:30am 26.0 29.2 22.3 80 2.5 E 9 13 5 7 1007.6 1007.4 0.0
19/03:00am 26.2 30.2 23.1 83 2.1 E 7 9 4 5 1007.7 1007.5 0.0
19/02:30am 26.5 30.9 23.4 83 2.1 ENE 6 9 3 5 1007.7 1007.5 0.0
19/02:00am 26.6 31.1 23.9 85 1.9 NNE 7 9 4 5 1007.7 1007.5 0.0
19/01:30am 26.7 32.5 24.0 85 1.9 CALM 0 0 0 0 1008.2 1008.0 0.0
19/01:00am 27.0 30.8 24.1 84 2.0 N 11 13 6 7 1008.5 1008.3 0.0
19/12:30am 27.2 29.9 24.1 83 2.1 N 17 22 9 12 1008.7 1008.5 0.0
19/12:00am 28.4 31.1 24.2 78 2.9 NNW 17 20 9 11 1008.8 1008.6 0.0
 
Date/Time
CST
Temp
°C
App
Temp
°C
Dew
Point
°C
Rel
Hum
%
Delta-T
°C
Wind Press
QNH
hPa
Press
MSL
hPa
Rain since
9am
mm
Dir  Spd
km/h
Gust
km/h
Spd
kts
Gust
kts
18/11:30pm 29.1 33.0 24.2 75 3.4 NW 11 15 6 8 1008.8 1008.6 0.0
18/11:00pm 29.0 32.9 24.3 76 3.3 NNW 11 15 6 8 1009.0 1008.8 0.0
18/10:30pm 29.1 33.5 24.4 76 3.3 NNW 9 13 5 7 1008.8 1008.6 0.0
18/10:00pm 28.8 33.4 24.1 76 3.3 NW 7 11 4 6 1008.4 1008.2 0.0
18/09:30pm 29.1 32.9 24.0 74 3.5 NW 11 17 6 9 1008.2 1008.0 0.0
18/09:00pm 28.9 32.9 23.8 74 3.5 NW 9 13 5 7 1008.0 1007.8 0.0
18/08:30pm 29.0 33.0 23.7 73 3.7 NW 9 13 5 7 1007.6 1007.4 0.0
18/08:00pm 29.0 33.1 23.9 74 3.5 NW 9 13 5 7 1007.2 1007.0 0.0
18/07:30pm 29.3 32.3 23.3 70 4.1 NW 13 19 7 10 1006.9 1006.6 0.0
18/07:00pm 29.8 32.8 23.3 68 4.5 NW 13 20 7 11 1006.4 1006.1 0.0
18/06:30pm 30.5 33.1 22.7 63 5.3 NW 13 19 7 10 1006.0 1005.7 0.0
18/06:00pm 31.3 33.7 22.3 58 6.1 NW 13 15 7 8 1005.4 1005.1 0.0
18/05:30pm 32.0 34.3 22.1 55 6.8 NW 13 20 7 11 1005.2 1004.9 0.0
18/05:00pm 32.0 34.2 21.8 54 6.9 W 13 19 7 10 1005.1 1004.8 0.0
18/04:30pm 32.5 35.3 22.3 55 7.0 WNW 11 17 6 9 1005.0 1004.7 0.0
18/04:00pm 32.3 34.8 22.4 56 6.8 W 13 19 7 10 1005.3 1005.0 0.0
18/03:30pm 32.1 34.5 22.2 56 6.8 NW 13 20 7 11 1005.5 1005.2 0.0
18/03:00pm 32.5 36.6 23.2 58 6.4 WNW 7 11 4 6 1005.7 1005.4 0.0
18/02:30pm 31.4 34.0 22.7 60 6.0 NNE 13 19 7 10 1006.1 1005.8 0.0
18/02:00pm 32.8 35.0 20.3 47 8.3 NE 9 17 5 9 1006.7 1006.4 0.0
18/01:30pm 32.4 34.0 20.0 48 8.2 NE 11 17 6 9 1007.3 1007.1 0.0
18/01:00pm 32.0 33.6 19.9 48 8.0 NE 11 17 6 9 1007.9 1007.7 0.0
18/12:30pm 31.9 35.8 22.6 58 6.4 N 6 11 3 6 1008.2 1008.0 0.0
18/12:00pm 31.0 34.6 23.1 63 5.4 ESE 9 11 5 6 1008.8 1008.6 0.0
18/11:30am 30.7 34.7 23.1 64 5.2 SSE 7 11 4 6 1009.2 1009.0 0.0
18/11:00am 30.2 33.4 22.4 63 5.3 SE 9 15 5 8 1009.5 1009.3 0.0
18/10:30am 30.1 33.6 22.8 65 5.0 SSE 9 11 5 6 1009.7 1009.5 0.0
18/10:00am 28.9 32.4 22.2 67 4.5 SSW 7 9 4 5 1009.9 1009.7 0.0
18/09:30am 27.9 30.9 21.9 70 4.0 SSE 9 13 5 7 1010.1 1009.9 0.0
18/09:00am 27.1 30.4 21.4 71 3.8 SSE 6 9 3 5 1009.8 1009.6 39.8
18/08:30am 25.9 29.3 22.0 79 2.6 S 7 11 4 6 1009.4 1009.2 39.8
18/08:00am 24.4 27.1 21.3 83 2.0 SSW 9 13 5 7 1009.3 1009.1 39.8
18/07:30am 24.4 27.4 21.9 86 1.7 S 9 13 5 7 1009.0 1008.8 39.8
18/07:00am 23.9 27.1 21.6 87 1.5 ESE 7 13 4 7 1008.2 1008.0 39.8
18/06:30am 23.5 27.0 21.8 90 1.1 NNE 6 9 3 5 1007.6 1007.4 39.8
18/06:00am 23.1 27.0 21.2 89 1.2 SSE 2 7 1 4 1007.3 1007.1 39.8
18/05:30am 23.2 26.2 20.9 87 1.5 E 6 9 3 5 1006.9 1006.6 39.8
18/05:00am 23.5 27.7 21.0 86 1.6 CALM 0 0 0 0 1007.4 1007.2 39.8
18/04:30am 23.4 26.4 20.9 86 1.6 NE 6 11 3 6 1007.8 1007.6 39.8
18/04:00am 23.2 26.3 21.1 88 1.4 NNW 6 9 3 5 1008.0 1007.8 39.6
18/03:30am 23.0 26.2 21.3 90 1.1 WNW 6 7 3 4 1008.8 1008.6 39.0
18/03:00am 23.3 24.1 21.4 89 1.3 SE 19 30 10 16 1009.5 1009.3 37.0
18/02:30am 23.7 23.8 21.2 86 1.6 ESE 22 30 12 16 1009.7 1009.5 29.8
18/02:00am 25.4 24.7 21.1 77 2.8 E 26 39 14 21 1009.5 1009.3 29.2
18/01:54am 25.6 25.8 21.3 77 2.8 E 22 35 12 19 1009.3 1009.1 29.2
18/01:30am 25.7 29.1 22.0 80 2.5 E 7 11 4 6 1009.1 1008.9 29.2
18/01:00am 25.6 28.9 22.5 83 2.1 E 9 11 5 6 1009.4 1009.2 29.2
18/12:30am 25.3 29.0 23.2 88 1.4 E 9 11 5 6 1009.6 1009.4 29.2
18/12:00am 25.5 30.5 23.2 87 1.6 ENE 2 9 1 5 1009.3 1009.1 29.2
 
Date/Time
CST
Temp
°C
App
Temp
°C
Dew
Point
°C
Rel
Hum
%
Delta-T
°C
Wind Press
QNH
hPa
Press
MSL
hPa
Rain since
9am
mm
Dir  Spd
km/h
Gust
km/h
Spd
kts
Gust
kts
17/11:30pm 25.2 30.0 22.9 87 1.6 ESE 2 7 1 4 1009.4 1009.2 29.2
17/11:00pm 24.8 29.9 22.7 88 1.4 CALM 0 0 0 0 1009.3 1009.1 29.2
17/10:30pm 25.4 30.2 22.1 82 2.2 CALM 0 0 0 0 1008.9 1008.7 29.2
17/10:00pm 25.5 30.0 21.6 79 2.6 CALM 0 0 0 0 1008.6 1008.4 29.2
17/09:30pm 25.3 29.1 22.4 84 2.0 SE 6 7 3 4 1008.5 1008.3 29.2
17/09:00pm 25.2 29.7 22.3 84 1.9 ESE 2 6 1 3 1008.2 1008.0 29.2
17/08:30pm 25.1 28.9 22.8 87 1.6 ENE 7 9 4 5 1007.7 1007.5 29.2
17/08:00pm 25.2 29.7 22.3 84 1.9 NE 2 7 1 4 1007.5 1007.3 29.2
17/07:30pm 25.2 30.3 22.7 86 1.7 CALM 0 0 0 0 1007.2 1007.0 29.2
17/07:00pm 25.4 29.4 22.7 85 1.8 SSE 6 9 3 5 1007.0 1006.7 29.2
17/06:30pm 25.3 29.6 22.6 85 1.8 SE 4 9 2 5 1006.4 1006.1 29.2
17/06:00pm 24.8 29.6 22.1 85 1.8 CALM 0 0 0 0 1006.2 1005.9 29.2
17/05:30pm 23.7 27.7 22.0 90 1.1 SW 4 7 2 4 1006.0 1005.7 29.2
17/05:00pm 23.0 25.0 21.5 91 1.0 SW 13 19 7 10 1006.2 1005.9 29.2
17/04:30pm 22.8 22.3 20.7 88 1.4 SE 24 37 13 20 1007.7 1007.5 24.6
17/04:03pm 25.8 24.5 20.6 73 3.4 E 28 46 15 25 1007.3 1007.1 0.2
17/04:00pm 26.3 25.3 19.7 67 4.3 E 24 46 13 25 1007.3 1007.1 0.2
17/03:30pm 30.2 34.0 24.1 70 4.3 SSW 11 17 6 9 1006.1 1005.8 0.0
17/03:00pm 30.4 32.2 22.6 63 5.3 NW 17 24 9 13 1006.1 1005.8 0.0
17/02:30pm 33.5 36.1 22.6 53 7.5 WNW 13 22 7 12 1006.2 1005.9 0.0
17/02:00pm 34.2 37.1 23.2 52 7.6 W 13 20 7 11 1006.7 1006.4 0.0
17/01:30pm 33.7 36.6 22.5 52 7.7 W 11 17 6 9 1007.1 1006.8 0.0
17/01:00pm 32.5 34.7 22.6 56 6.8 W 15 20 8 11 1007.5 1007.3 0.0
17/12:30pm 33.0 34.9 22.7 54 7.1 W 17 26 9 14 1008.0 1007.8 0.0
17/12:00pm 33.5 36.0 20.3 46 8.8 NW 7 13 4 7 1008.5 1008.3 0.0
17/11:30am 33.5 36.7 20.6 46 8.7 E 4 11 2 6 1008.7 1008.5 0.0
17/11:00am 32.4 35.3 20.6 49 7.9 NE 6 15 3 8 1009.1 1008.9 0.0
17/10:30am 31.6 34.4 20.8 52 7.2 E 7 13 4 7 1009.5 1009.3 0.0
17/10:00am 31.0 33.8 21.5 57 6.4 ENE 9 13 5 7 1010.0 1009.8 0.0
17/09:30am 30.3 33.0 21.4 59 6.0 SE 9 13 5 7 1010.0 1009.8 0.0
17/09:00am 29.4 31.8 21.6 63 5.2 E 11 15 6 8 1009.7 1009.5 0.0
17/08:30am 28.6 31.7 22.1 68 4.4 ESE 9 13 5 7 1009.8 1009.6 0.0
17/08:00am 27.3 31.0 22.3 74 3.4 E 6 9 3 5 1009.7 1009.5 0.0
17/07:30am 26.2 29.7 22.1 78 2.8 ENE 7 11 4 6 1009.4 1009.2 0.0
17/07:00am 25.6 28.7 22.1 81 2.3 E 9 13 5 7 1009.2 1009.0 0.0
17/06:30am 25.4 28.7 21.9 81 2.3 E 7 9 4 5 1009.0 1008.8 0.0
17/06:00am 25.3 28.2 21.8 81 2.3 E 9 11 5 6 1008.5 1008.3 0.0
17/05:30am 25.1 28.6 21.8 82 2.2 E 6 7 3 4 1008.1 1007.9 0.0
17/05:00am 24.9 29.5 21.8 83 2.1 CALM 0 7 0 4 1007.9 1007.7 0.0
17/04:30am 24.8 28.0 21.7 83 2.1 ENE 7 9 4 5 1008.0 1007.8 0.0
17/04:00am 25.1 28.8 22.2 84 1.9 NNE 6 7 3 4 1008.0 1007.8 0.0
17/03:30am 24.6 29.2 21.7 84 1.9 CALM 0 0 0 0 1007.9 1007.7 0.0
17/03:00am 25.3 30.0 22.0 82 2.2 CALM 0 0 0 0 1008.0 1007.8 0.0
17/02:30am 25.2 28.5 21.9 82 2.2 E 7 9 4 5 1008.4 1008.2 0.0
17/02:00am 24.9 28.2 21.8 83 2.1 NNE 7 9 4 5 1008.6 1008.4 0.0
17/01:30am 24.6 29.0 21.3 82 2.2 CALM 0 0 0 0 1008.9 1008.7 0.0
17/01:00am 25.0 29.0 21.3 80 2.4 S 2 7 1 4 1009.3 1009.1 0.0
17/12:30am 25.0 28.1 21.5 81 2.3 E 7 13 4 7 1009.5 1009.3 0.0
17/12:00am 25.0 28.6 21.3 80 2.4 NE 4 9 2 5 1009.3 1009.1 0.0
 
Date/Time
CST
Temp
°C
App
Temp
°C
Dew
Point
°C
Rel
Hum
%
Delta-T
°C
Wind Press
QNH
hPa
Press
MSL
hPa
Rain since
9am
mm
Dir  Spd
km/h
Gust
km/h
Spd
kts
Gust
kts
16/11:30pm 25.0 27.7 21.3 80 2.4 ESE 9 13 5 7 1009.4 1009.2 0.0
16/11:00pm 25.2 27.1 21.3 79 2.6 ESE 13 20 7 11 1009.9 1009.7 0.0
16/10:30pm 25.3 27.3 20.8 76 3.0 E 11 17 6 9 1009.7 1009.5 0.0
16/10:00pm 25.8 28.2 20.8 74 3.3 E 9 15 5 8 1009.1 1008.9 0.0
16/09:30pm 26.1 28.5 21.5 76 3.1 NE 11 17 6 9 1008.7 1008.5 0.0
16/09:00pm 25.9 28.9 21.3 76 3.1 ENE 7 11 4 6 1008.2 1008.0 0.0
16/08:30pm 26.6 29.5 20.7 70 3.9 NNW 6 9 3 5 1007.0 1006.7 0.0
16/08:00pm 26.7 28.8 19.3 64 4.8 WNW 7 9 4 5 1006.5 1006.2 0.0
16/07:30pm 26.9 29.8 19.0 62 5.1 ENE 2 7 1 4 1006.6 1006.3 0.0
16/07:00pm 27.5 28.2 17.9 55 6.1 E 11 19 6 10 1006.6 1006.3 0.0
16/06:30pm 27.6 28.8 19.9 63 5.0 SE 13 15 7 8 1007.1 1006.8 0.0
16/06:00pm 26.9 27.1 20.5 68 4.2 ESE 20 33 11 18 1007.8 1007.6 0.0
16/05:30pm 27.8 28.0 21.3 67 4.3 E 22 32 12 17 1007.8 1007.6 0.0
16/05:00pm 30.0 32.9 21.7 61 5.6 SSW 9 17 5 9 1006.1 1005.8 0.0
16/04:30pm 29.5 31.3 21.2 61 5.6 SSW 13 22 7 12 1005.8 1005.5 0.0
16/04:00pm 29.9 31.9 21.6 61 5.6 SSW 13 26 7 14 1006.3 1006.0 0.0
16/03:30pm 32.8 35.1 22.0 53 7.4 WNW 13 22 7 12 1005.7 1005.4 0.0
16/03:00pm 33.1 35.2 22.5 53 7.3 WNW 15 20 8 11 1005.3 1005.0 0.0
16/02:30pm 32.4 34.8 22.2 55 7.0 WNW 13 20 7 11 1005.5 1005.2 0.0
16/02:00pm 33.4 36.1 22.8 53 7.3 NW 13 17 7 9 1005.8 1005.5 0.0
16/01:30pm 33.8 37.3 22.2 50 8.0 WNW 7 13 4 7 1006.4 1006.1 0.0
16/01:00pm 33.0 36.9 23.0 55 6.9 NNW 7 15 4 8 1007.0 1006.7 0.0
16/12:30pm 32.1 35.8 22.5 57 6.6 N 7 17 4 9 1007.8 1007.6 0.0
16/12:00pm 31.0 34.4 22.0 58 6.1 NNW 7 15 4 8 1008.5 1008.3 0.0
16/11:30am 30.6 33.6 21.9 59 5.9 NNE 9 13 5 7 1009.1 1008.9 0.0
16/11:00am 30.2 33.5 22.6 63 5.2 N 9 15 5 8 1009.4 1009.2 0.0
16/10:30am 29.8 32.3 22.5 65 5.0 N 13 17 7 9 1009.8 1009.6 0.0
16/10:00am 28.9 31.0 22.4 68 4.4 N 15 19 8 10 1010.1 1009.9 0.0
16/09:30am 28.7 30.7 22.2 68 4.4 N 15 20 8 11 1010.2 1010.0 0.0
16/09:00am 27.7 29.7 22.2 72 3.7 N 15 17 8 9 1010.1 1009.9 0.0

Other Formats:

Comma delimited format used in spreadsheet applications
http://www.bom.gov.au/fwo/IDD60801/IDD60801.95111.axf

JavaScript Object Notation format (JSON) in row-major order
http://www.bom.gov.au/fwo/IDD60801/IDD60801.95111.json